Latest Coastal Weather Observations for Onslow Airport

IDW60701

Issued at 4:55 pm WST Wednesday 30 July 2014 (issued every 10 minutes, with the page automatically refreshed every 10 minutes)

About coastal observations | Map of coastal stations | Coastal observations for WA | Marine services | Other Formats
Station Details ID: 005017 Name: ONSLOW AIRPORT Lat: -21.67 Lon: 115.11 Height: 10.5 m
Data from the previous 72 hours. | See also: Recent months at Onslow Airport
Date/Time
WST
Temp

°C
Wind Pressure Rain
since 9am
mm
Weather Cloud Vis
km
Sea
Height
m
Swell
Dir
 
Speed
knots
Gust
knots
hPa Trend Height
m
Period
s
Dir
30/04:30pm 26.2 NNW 9 12 1017.4 - 0.0 - - - - - - -
30/04:00pm 26.8 NNW 10 14 1017.3 - 0.0 - - - - - - -
30/03:30pm 28.6 NNW 11 14 1017.1 - 0.0 - - - - - - -
30/03:00pm 28.4 NNW 11 13 1017.3 - 0.0 - - - - - - -
30/02:30pm 29.7 NNW 9 12 1017.4 - 0.0 - - - - - - -
30/02:00pm 30.2 N 10 12 1017.5 - 0.0 - - - - - - -
30/01:30pm 29.5 N 10 15 1017.7 - 0.0 - - - - - - -
30/01:00pm 31.5 NE 8 11 1018.0 - 0.0 - - - - - - -
30/12:30pm 30.8 NE 10 13 1018.5 - 0.0 - - - - - - -
30/12:00pm 30.5 ENE 10 12 1019.0 - 0.0 - - - - - - -
30/11:30am 29.4 ENE 9 12 1019.3 - 0.0 - - - - - - -
30/11:00am 28.0 ENE 9 11 1019.7 - 0.0 - - - - - - -
30/10:30am 26.9 E 9 11 1020.0 - 0.0 - - - - - - -
30/10:00am 24.8 ESE 9 12 1020.1 - 0.0 - - - - - - -
30/09:30am 22.5 SE 9 11 1020.1 - 0.0 - - - - - - -
30/09:00am 20.9 SE 8 11 1019.9 - 0.0 - - - - - - -
30/08:30am 20.3 ESE 9 10 1019.9 - 0.0 - - - - - - -
30/08:00am 19.5 SE 9 11 1019.8 - 0.0 - - - - - - -
30/07:30am 18.2 ESE 8 9 1019.5 - 0.0 - - - - - - -
30/07:00am 17.2 SE 9 11 1019.3 - 0.0 - - - - - - -
30/06:30am 15.9 ESE 8 10 1019.2 - 0.0 - - - - - - -
30/06:00am 15.9 SE 8 9 1018.9 - 0.0 - - - - - - -
30/05:30am 15.4 SE 6 7 1018.7 - 0.0 - - - - - - -
30/05:00am 16.0 SSE 3 5 1018.5 - 0.0 - - - - - - -
30/04:30am 15.8 S 6 7 1018.3 - 0.0 - - - - - - -
30/04:00am 16.0 S 7 9 1018.4 - 0.0 - - - - - - -
30/03:30am 17.1 SSW 8 10 1018.4 - 0.0 - - - - - - -
30/03:00am 17.0 SW 7 8 1018.3 - 0.0 - - - - - - -
30/02:30am 17.2 W 5 6 1018.5 - 0.0 - - - - - - -
30/02:00am 17.7 W 4 4 1018.8 - 0.0 - - - - - - -
30/01:30am 18.1 WNW 5 5 1019.0 - 0.0 - - - - - - -
30/01:00am 18.2 WNW 5 7 1019.3 - 0.0 - - - - - - -
30/12:30am 18.4 NNW 5 6 1019.3 - 0.0 - - - - - - -
30/12:00am 19.9 NW 1 5 1019.2 - 0.0 - - - - - - -
 
Date/Time
WST
Temp

°C
Wind Pressure Rain
since 9am
mm
Weather Cloud Vis
km
Sea
Height
m
Swell
Dir
 
Speed
knots
Gust
knots
hPa Trend Height
m
Period
s
Dir
29/11:30pm 19.5 SSW 7 9 1019.0 - 0.0 - - - - - - -
29/11:00pm 19.8 SW 7 8 1019.1 - 0.0 - - - - - - -
29/10:30pm 20.3 SW 6 8 1019.2 - 0.0 - - - - - - -
29/10:00pm 20.3 SW 7 8 1019.3 - 0.0 - - - - - - -
29/09:30pm 19.8 SW 5 7 1019.5 - 0.0 - - - - - - -
29/09:00pm 19.8 SW 7 9 1019.4 - 0.0 - - - - - - -
29/08:30pm 20.1 W 7 8 1019.2 - 0.0 - - - - - - -
29/08:00pm 20.0 W 7 8 1019.1 - 0.0 - - - - - - -
29/07:30pm 20.4 WNW 7 8 1019.0 - 0.0 - - - - - - -
29/07:00pm 20.6 WNW 7 8 1018.9 - 0.0 - - - - - - -
29/06:30pm 21.5 NW 7 9 1018.7 - 0.0 - - - - - - -
29/06:00pm 22.2 NW 10 11 1018.5 - 0.0 - - - - - - -
29/05:30pm 24.0 NNW 10 14 1018.2 - 0.0 - - - - - - -
29/05:00pm 27.5 WNW 7 8 1017.9 - 0.0 - - - - - - -
29/04:30pm 29.3 WNW 6 7 1017.7 - 0.0 - - - - - - -
29/04:00pm 29.8 WNW 7 8 1017.7 - 0.0 - - - - - - -
29/03:30pm 30.0 NW 8 11 1017.8 - 0.0 - - - - - - -
29/03:00pm 31.5 NE 8 11 1017.8 - 0.0 - - - - - - -
29/02:30pm 31.9 NNE 9 12 1017.9 - 0.0 - - - - - - -
29/02:00pm 31.7 ENE 6 9 1017.9 - 0.0 - - - - - - -
29/01:30pm 31.8 NE 6 10 1018.3 - 0.0 - - - - - - -
29/01:00pm 31.6 ENE 7 10 1018.7 - 0.0 - - - - - - -
29/12:30pm 31.5 ENE 6 8 1019.0 - 0.0 - - - - - - -
29/12:00pm 31.1 E 7 9 1019.2 - 0.0 - - - - - - -
29/11:30am 30.1 SE 8 11 1019.5 - 0.0 - - - - - - -
29/11:00am 28.8 SE 9 11 1019.9 - 0.0 - - - - - - -
29/10:30am 27.3 SE 10 11 1020.1 - 0.0 - - - - - - -
29/10:00am 25.0 SSE 8 10 1020.4 - 0.0 - - - - - - -
29/09:30am 22.7 SE 6 7 1020.6 - 0.0 - - - - - - -
29/09:00am 21.5 SE 7 8 1020.4 - 0.0 - - - - - - -
29/08:30am 20.2 SE 5 9 1020.2 - 0.0 - - - - - - -
29/08:00am 15.9 WNW 2 5 1019.9 - 0.0 - - - - - - -
29/07:30am 13.4 W 4 5 1019.7 - 0.0 - - - - - - -
29/07:00am 13.4 CALM 0 0 1019.2 - 0.0 - - - - - - -
29/06:30am 12.9 S 2 6 1019.1 - 0.0 - - - - - - -
29/06:00am 14.0 SSE 7 8 1018.6 - 0.0 - - - - - - -
29/05:30am 14.4 SSE 7 8 1018.5 - 0.0 - - - - - - -
29/05:00am 15.0 SSE 7 8 1018.4 - 0.0 - - - - - - -
29/04:30am 14.3 SSW 7 7 1018.6 - 0.0 - - - - - - -
29/04:00am 14.7 SW 5 6 1018.7 - 0.0 - - - - - - -
29/03:30am 16.0 SSW 7 7 1018.8 - 0.0 - - - - - - -
29/03:00am 15.0 S 5 6 1019.0 - 0.0 - - - - - - -
29/02:30am 14.7 SW 5 6 1019.3 - 0.0 - - - - - - -
29/02:00am 15.9 SW 7 8 1019.3 - 0.0 - - - - - - -
29/01:30am 17.0 SSW 7 8 1019.5 - 0.0 - - - - - - -
29/01:00am 17.8 S 8 10 1019.5 - 0.0 - - - - - - -
29/12:30am 18.2 S 11 12 1019.5 - 0.0 - - - - - - -
29/12:00am 18.0 S 9 10 1019.7 - 0.0 - - - - - - -
 
Date/Time
WST
Temp

°C
Wind Pressure Rain
since 9am
mm
Weather Cloud Vis
km
Sea
Height
m
Swell
Dir
 
Speed
knots
Gust
knots
hPa Trend Height
m
Period
s
Dir
28/11:30pm 18.0 S 8 9 1019.7 - 0.0 - - - - - - -
28/11:00pm 18.8 S 8 9 1019.8 - 0.0 - - - - - - -
28/10:30pm 19.2 SSW 9 10 1019.8 - 0.0 - - - - - - -
28/10:00pm 19.0 SW 8 9 1019.9 - 0.0 - - - - - - -
28/09:30pm 19.5 SW 7 8 1019.8 - 0.0 - - - - - - -
28/09:00pm 20.2 SW 9 10 1019.6 - 0.0 - - - - - - -
28/08:30pm 20.6 SW 8 9 1019.5 - 0.0 - - - - - - -
28/08:00pm 20.4 SW 8 10 1019.2 - 0.0 - - - - - - -
28/07:30pm 21.2 WSW 8 9 1019.0 - 0.0 - - - - - - -
28/07:00pm 22.1 WSW 9 12 1018.7 - 0.0 - - - - - - -
28/06:30pm 22.1 W 9 10 1018.4 - 0.0 - - - - - - -
28/06:00pm 23.4 W 8 9 1018.3 - 0.0 - - - - - - -
28/05:30pm 25.6 W 8 10 1018.1 - 0.0 - - - - - - -
28/05:00pm 27.3 W 8 9 1018.0 - 0.0 - - - - - - -
28/04:30pm 27.1 W 9 11 1017.8 - 0.0 - - - - - - -
28/04:00pm 27.4 W 9 11 1017.8 - 0.0 - - - - - - -
28/03:30pm 27.5 WNW 9 11 1018.0 - 0.0 - - - - - - -
28/03:00pm 28.3 WNW 11 14 1017.9 - 0.0 - - - - - - -
28/02:30pm 30.0 W 6 11 1018.1 - 0.0 - - - - - - -
28/02:00pm 29.4 W 8 12 1018.4 - 0.0 - - - - - - -
28/01:30pm 29.6 NW 6 9 1019.1 - 0.0 - - - - - - -
28/01:00pm 29.0 ESE 6 9 1019.4 - 0.0 - - - - - - -
28/12:30pm 28.5 ESE 5 10 1019.9 - 0.0 - - - - - - -
28/12:00pm 28.6 SE 5 7 1020.4 - 0.0 - - - - - - -
28/11:30am 27.9 ESE 7 10 1020.8 - 0.0 - - - - - - -
28/11:00am 26.9 ESE 9 11 1021.2 - 0.0 - - - - - - -
28/10:30am 25.4 SE 8 10 1021.6 - 0.0 - - - - - - -
28/10:00am 24.4 SE 8 9 1021.7 - 0.0 - - - - - - -
28/09:30am 22.6 SE 7 8 1021.7 - 0.0 - - - - - - -
28/09:00am 20.9 SSE 6 7 1021.5 - 0.0 - - - - - - -
28/08:30am 18.7 SSE 5 7 1021.2 - 0.0 - - - - - - -
28/08:00am 16.7 S 4 5 1021.1 - 0.0 - - - - - - -
28/07:30am 14.6 S 5 6 1020.9 - 0.0 - - - - - - -
28/07:00am 13.2 SSE 7 8 1020.8 - 0.0 - - - - - - -
28/06:30am 13.1 SE 6 7 1020.6 - 0.0 - - - - - - -
28/06:00am 13.1 SSE 3 4 1020.4 - 0.0 - - - - - - -
28/05:30am 13.3 ESE 3 5 1020.2 - 0.0 - - - - - - -
28/05:00am 13.0 SSE 5 6 1020.1 - 0.0 - - - - - - -
28/04:30am 12.8 SSE 8 9 1020.0 - 0.0 - - - - - - -
28/04:00am 13.6 S 5 5 1019.8 - 0.0 - - - - - - -
28/03:30am 13.5 SSW 5 6 1019.8 - 0.0 - - - - - - -
28/03:00am 14.2 SSE 3 4 1019.8 - 0.0 - - - - - - -
28/02:30am 14.9 CALM 0 0 1019.9 - 0.0 - - - - - - -
28/02:00am 15.1 E 2 5 1019.9 - 0.0 - - - - - - -
28/01:30am 15.9 CALM 0 0 1020.0 - 0.0 - - - - - - -
28/01:00am 16.5 SSW 2 3 1020.4 - 0.0 - - - - - - -
28/12:30am 16.5 W 3 4 1020.5 - 0.0 - - - - - - -
28/12:00am 16.8 ENE 2 4 1020.6 - 0.0 - - - - - - -
 
Date/Time
WST
Temp

°C
Wind Pressure Rain
since 9am
mm
Weather Cloud Vis
km
Sea
Height
m
Swell
Dir
 
Speed
knots
Gust
knots
hPa Trend Height
m
Period
s
Dir
27/11:30pm 16.2 WNW 7 8 1020.6 - 0.0 - - - - - - -
27/11:00pm 16.6 N 7 8 1020.9 - 0.0 - - - - - - -
27/10:30pm 18.2 NNE 7 8 1021.0 - 0.0 - - - - - - -
27/10:00pm 17.4 NNE 7 8 1021.0 - 0.0 - - - - - - -
27/09:30pm 17.6 NNE 5 7 1020.9 - 0.0 - - - - - - -
27/09:00pm 18.1 NNE 1 5 1020.8 - 0.0 - - - - - - -
27/08:30pm 18.6 CALM 0 0 1020.9 - 0.0 - - - - - - -
27/08:00pm 17.4 N 4 5 1020.8 - 0.0 - - - - - - -
27/07:30pm 18.3 WNW 1 3 1020.5 - 0.0 - - - - - - -
27/07:00pm 18.5 W 5 7 1020.3 - 0.0 - - - - - - -
27/06:30pm 19.2 NW 7 8 1020.0 - 0.0 - - - - - - -
27/06:00pm 20.3 NW 6 8 1019.8 - 0.0 - - - - - - -
27/05:30pm 22.6 NW 7 10 1019.2 - 0.0 - - - - - - -
27/05:00pm 24.5 WNW 6 7 1019.1 - 0.0 - - - - - - -

Other Formats:

Comma delimited format used in spreadsheet applications
http://www.bom.gov.au/fwo/IDW60701/IDW60701.95305.axf

JavaScript Object Notation format (JSON) in row-major order
http://www.bom.gov.au/fwo/IDW60701/IDW60701.95305.json